sensor_id;sensor_type;location;lat;lon;timestamp;P1;durP1;ratioP1;P2;durP2;ratioP2
568;SDS011;269;48.884;9.192;2023-06-14T00:01:13;4.60;;;4.23;;
568;SDS011;269;48.884;9.192;2023-06-14T00:03:40;5.00;;;4.50;;
568;SDS011;269;48.884;9.192;2023-06-14T00:06:09;4.83;;;4.43;;
568;SDS011;269;48.884;9.192;2023-06-14T00:08:36;4.40;;;4.00;;
568;SDS011;269;48.884;9.192;2023-06-14T00:11:03;4.90;;;4.50;;
568;SDS011;269;48.884;9.192;2023-06-14T00:13:30;5.40;;;4.80;;
568;SDS011;269;48.884;9.192;2023-06-14T00:15:57;4.80;;;4.40;;
568;SDS011;269;48.884;9.192;2023-06-14T00:18:24;4.90;;;4.40;;
568;SDS011;269;48.884;9.192;2023-06-14T00:20:55;4.37;;;4.07;;
568;SDS011;269;48.884;9.192;2023-06-14T00:23:23;4.77;;;4.37;;
568;SDS011;269;48.884;9.192;2023-06-14T00:25:50;5.30;;;4.90;;
568;SDS011;269;48.884;9.192;2023-06-14T00:28:17;4.67;;;4.27;;
568;SDS011;269;48.884;9.192;2023-06-14T00:30:45;5.10;;;4.33;;
568;SDS011;269;48.884;9.192;2023-06-14T00:33:12;5.10;;;4.70;;
568;SDS011;269;48.884;9.192;2023-06-14T00:35:40;4.63;;;4.23;;
568;SDS011;269;48.884;9.192;2023-06-14T00:38:07;4.80;;;4.50;;
568;SDS011;269;48.884;9.192;2023-06-14T00:40:35;5.00;;;4.60;;
568;SDS011;269;48.884;9.192;2023-06-14T00:43:02;4.60;;;4.20;;
568;SDS011;269;48.884;9.192;2023-06-14T00:45:29;4.90;;;4.50;;
568;SDS011;269;48.884;9.192;2023-06-14T00:48:01;4.60;;;4.30;;
568;SDS011;269;48.884;9.192;2023-06-14T00:50:29;5.17;;;4.70;;
568;SDS011;269;48.884;9.192;2023-06-14T00:52:58;4.53;;;4.13;;
568;SDS011;269;48.884;9.192;2023-06-14T00:55:26;5.10;;;4.60;;
568;SDS011;269;48.884;9.192;2023-06-14T00:57:55;4.17;;;3.87;;
568;SDS011;269;48.884;9.192;2023-06-14T01:00:22;5.07;;;4.67;;
568;SDS011;269;48.884;9.192;2023-06-14T01:02:49;5.20;;;4.70;;
568;SDS011;269;48.884;9.192;2023-06-14T01:05:16;6.57;;;4.90;;
568;SDS011;269;48.884;9.192;2023-06-14T01:10:36;4.70;;;4.30;;
568;SDS011;269;48.884;9.192;2023-06-14T01:13:11;5.07;;;4.57;;
568;SDS011;269;48.884;9.192;2023-06-14T01:15:45;5.10;;;4.70;;
568;SDS011;269;48.884;9.192;2023-06-14T01:18:13;4.70;;;4.40;;
568;SDS011;269;48.884;9.192;2023-06-14T01:20:43;4.87;;;4.47;;
568;SDS011;269;48.884;9.192;2023-06-14T01:23:14;4.90;;;4.50;;
568;SDS011;269;48.884;9.192;2023-06-14T01:25:42;4.83;;;4.53;;
568;SDS011;269;48.884;9.192;2023-06-14T01:28:10;5.17;;;4.77;;
568;SDS011;269;48.884;9.192;2023-06-14T01:30:39;4.87;;;4.50;;
568;SDS011;269;48.884;9.192;2023-06-14T01:33:10;7.30;;;4.70;;
568;SDS011;269;48.884;9.192;2023-06-14T01:35:39;4.63;;;4.20;;
568;SDS011;269;48.884;9.192;2023-06-14T01:38:07;5.30;;;4.90;;
568;SDS011;269;48.884;9.192;2023-06-14T01:40:35;4.90;;;4.50;;
568;SDS011;269;48.884;9.192;2023-06-14T01:43:03;5.03;;;4.70;;
568;SDS011;269;48.884;9.192;2023-06-14T01:45:32;4.70;;;4.40;;
568;SDS011;269;48.884;9.192;2023-06-14T01:48:00;5.30;;;4.80;;
568;SDS011;269;48.884;9.192;2023-06-14T01:50:28;5.33;;;4.93;;
568;SDS011;269;48.884;9.192;2023-06-14T01:52:56;4.60;;;4.20;;
568;SDS011;269;48.884;9.192;2023-06-14T01:55:23;4.77;;;4.40;;
568;SDS011;269;48.884;9.192;2023-06-14T01:57:54;4.43;;;4.13;;
568;SDS011;269;48.884;9.192;2023-06-14T02:00:21;4.93;;;4.53;;
568;SDS011;269;48.884;9.192;2023-06-14T02:02:48;5.30;;;4.80;;
568;SDS011;269;48.884;9.192;2023-06-14T02:05:15;5.63;;;4.67;;
568;SDS011;269;48.884;9.192;2023-06-14T02:07:44;4.90;;;4.47;;
568;SDS011;269;48.884;9.192;2023-06-14T02:10:11;5.30;;;4.80;;
568;SDS011;269;48.884;9.192;2023-06-14T02:12:40;5.00;;;4.60;;
568;SDS011;269;48.884;9.192;2023-06-14T02:15:09;5.90;;;5.30;;
568;SDS011;269;48.884;9.192;2023-06-14T02:17:42;5.43;;;5.03;;
568;SDS011;269;48.884;9.192;2023-06-14T02:20:09;4.97;;;4.50;;
568;SDS011;269;48.884;9.192;2023-06-14T02:22:37;5.07;;;4.50;;
568;SDS011;269;48.884;9.192;2023-06-14T02:25:05;5.53;;;4.90;;
568;SDS011;269;48.884;9.192;2023-06-14T02:27:32;5.23;;;4.83;;
568;SDS011;269;48.884;9.192;2023-06-14T02:29:59;5.00;;;4.70;;
568;SDS011;269;48.884;9.192;2023-06-14T02:32:28;6.20;;;5.00;;
568;SDS011;269;48.884;9.192;2023-06-14T02:34:57;4.83;;;4.43;;
568;SDS011;269;48.884;9.192;2023-06-14T02:37:23;5.47;;;5.07;;
568;SDS011;269;48.884;9.192;2023-06-14T02:39:51;6.67;;;4.90;;
568;SDS011;269;48.884;9.192;2023-06-14T02:42:17;5.73;;;5.23;;
568;SDS011;269;48.884;9.192;2023-06-14T02:44:45;5.13;;;4.60;;
568;SDS011;269;48.884;9.192;2023-06-14T02:47:16;5.30;;;4.80;;
568;SDS011;269;48.884;9.192;2023-06-14T02:49:45;5.10;;;4.70;;
568;SDS011;269;48.884;9.192;2023-06-14T02:52:12;4.90;;;4.50;;
568;SDS011;269;48.884;9.192;2023-06-14T02:54:39;5.30;;;4.90;;
568;SDS011;269;48.884;9.192;2023-06-14T02:57:06;5.13;;;4.63;;
568;SDS011;269;48.884;9.192;2023-06-14T02:59:33;5.70;;;5.20;;
568;SDS011;269;48.884;9.192;2023-06-14T03:02:01;5.30;;;4.80;;
568;SDS011;269;48.884;9.192;2023-06-14T03:04:28;6.27;;;5.20;;
568;SDS011;269;48.884;9.192;2023-06-14T03:07:01;5.60;;;5.17;;
568;SDS011;269;48.884;9.192;2023-06-14T03:09:34;5.60;;;5.10;;
568;SDS011;269;48.884;9.192;2023-06-14T03:12:02;5.50;;;4.93;;
568;SDS011;269;48.884;9.192;2023-06-14T03:14:30;5.30;;;4.80;;
568;SDS011;269;48.884;9.192;2023-06-14T03:16:58;5.80;;;5.30;;
568;SDS011;269;48.884;9.192;2023-06-14T03:19:25;5.90;;;5.30;;
568;SDS011;269;48.884;9.192;2023-06-14T03:21:52;5.70;;;4.60;;
568;SDS011;269;48.884;9.192;2023-06-14T03:24:23;5.50;;;5.03;;
568;SDS011;269;48.884;9.192;2023-06-14T03:26:52;5.93;;;5.43;;
568;SDS011;269;48.884;9.192;2023-06-14T03:29:20;5.10;;;4.63;;
568;SDS011;269;48.884;9.192;2023-06-14T03:31:57;5.40;;;4.90;;
568;SDS011;269;48.884;9.192;2023-06-14T03:34:25;5.27;;;4.73;;
568;SDS011;269;48.884;9.192;2023-06-14T03:36:53;5.30;;;4.80;;
568;SDS011;269;48.884;9.192;2023-06-14T03:39:20;5.43;;;4.93;;
568;SDS011;269;48.884;9.192;2023-06-14T03:41:48;6.00;;;5.50;;
568;SDS011;269;48.884;9.192;2023-06-14T03:44:15;5.70;;;5.20;;
568;SDS011;269;48.884;9.192;2023-06-14T03:46:44;5.50;;;5.10;;
568;SDS011;269;48.884;9.192;2023-06-14T03:49:11;5.73;;;5.27;;
568;SDS011;269;48.884;9.192;2023-06-14T03:51:39;5.87;;;5.33;;
568;SDS011;269;48.884;9.192;2023-06-14T03:54:06;6.70;;;5.93;;
568;SDS011;269;48.884;9.192;2023-06-14T03:56:33;5.50;;;5.10;;
568;SDS011;269;48.884;9.192;2023-06-14T03:59:02;5.83;;;5.23;;
568;SDS011;269;48.884;9.192;2023-06-14T04:01:29;5.80;;;5.40;;
568;SDS011;269;48.884;9.192;2023-06-14T04:03:58;6.20;;;5.70;;
568;SDS011;269;48.884;9.192;2023-06-14T04:06:26;7.23;;;5.30;;
568;SDS011;269;48.884;9.192;2023-06-14T04:08:58;6.00;;;5.37;;
568;SDS011;269;48.884;9.192;2023-06-14T04:11:28;5.67;;;5.17;;
568;SDS011;269;48.884;9.192;2023-06-14T04:13:55;7.13;;;6.43;;
568;SDS011;269;48.884;9.192;2023-06-14T04:16:24;8.20;;;6.67;;
568;SDS011;269;48.884;9.192;2023-06-14T04:18:51;6.23;;;5.73;;
568;SDS011;269;48.884;9.192;2023-06-14T04:21:18;6.07;;;5.57;;
568;SDS011;269;48.884;9.192;2023-06-14T04:23:45;7.30;;;6.27;;
568;SDS011;269;48.884;9.192;2023-06-14T04:26:12;6.70;;;6.10;;
568;SDS011;269;48.884;9.192;2023-06-14T04:28:39;6.60;;;6.10;;
568;SDS011;269;48.884;9.192;2023-06-14T04:31:07;6.60;;;6.00;;
568;SDS011;269;48.884;9.192;2023-06-14T04:33:36;6.10;;;5.30;;
568;SDS011;269;48.884;9.192;2023-06-14T04:36:08;5.60;;;5.00;;
568;SDS011;269;48.884;9.192;2023-06-14T04:38:37;5.67;;;5.13;;
568;SDS011;269;48.884;9.192;2023-06-14T04:41:04;6.43;;;5.83;;
568;SDS011;269;48.884;9.192;2023-06-14T04:43:31;5.97;;;5.37;;
568;SDS011;269;48.884;9.192;2023-06-14T04:46:03;5.53;;;5.03;;
568;SDS011;269;48.884;9.192;2023-06-14T04:48:38;5.50;;;5.00;;
568;SDS011;269;48.884;9.192;2023-06-14T04:51:08;6.00;;;5.50;;
568;SDS011;269;48.884;9.192;2023-06-14T04:53:35;5.87;;;5.37;;
568;SDS011;269;48.884;9.192;2023-06-14T04:56:02;6.20;;;5.60;;
568;SDS011;269;48.884;9.192;2023-06-14T04:58:30;6.17;;;5.57;;
568;SDS011;269;48.884;9.192;2023-06-14T05:00:57;5.70;;;5.20;;
568;SDS011;269;48.884;9.192;2023-06-14T05:03:25;6.40;;;5.60;;
568;SDS011;269;48.884;9.192;2023-06-14T05:05:54;5.73;;;5.10;;
568;SDS011;269;48.884;9.192;2023-06-14T05:08:21;4.90;;;4.60;;
568;SDS011;269;48.884;9.192;2023-06-14T05:10:49;5.40;;;4.90;;
568;SDS011;269;48.884;9.192;2023-06-14T05:13:17;5.20;;;4.70;;
568;SDS011;269;48.884;9.192;2023-06-14T05:15:44;6.03;;;5.53;;
568;SDS011;269;48.884;9.192;2023-06-14T05:18:11;6.33;;;5.20;;
568;SDS011;269;48.884;9.192;2023-06-14T05:20:38;7.03;;;5.60;;
568;SDS011;269;48.884;9.192;2023-06-14T05:23:08;5.20;;;4.70;;
568;SDS011;269;48.884;9.192;2023-06-14T05:25:41;6.73;;;5.20;;
568;SDS011;269;48.884;9.192;2023-06-14T05:28:09;5.63;;;5.13;;
568;SDS011;269;48.884;9.192;2023-06-14T05:30:37;6.80;;;5.97;;
568;SDS011;269;48.884;9.192;2023-06-14T05:33:05;5.77;;;5.10;;
568;SDS011;269;48.884;9.192;2023-06-14T05:35:32;5.60;;;5.20;;
568;SDS011;269;48.884;9.192;2023-06-14T05:37:59;5.43;;;4.93;;
568;SDS011;269;48.884;9.192;2023-06-14T05:40:27;5.13;;;4.70;;
568;SDS011;269;48.884;9.192;2023-06-14T05:42:54;5.23;;;4.83;;
568;SDS011;269;48.884;9.192;2023-06-14T05:45:21;5.47;;;5.07;;
568;SDS011;269;48.884;9.192;2023-06-14T05:47:49;6.40;;;4.97;;
568;SDS011;269;48.884;9.192;2023-06-14T05:50:16;5.27;;;4.73;;
568;SDS011;269;48.884;9.192;2023-06-14T05:52:43;5.40;;;5.00;;
568;SDS011;269;48.884;9.192;2023-06-14T05:55:10;5.57;;;5.07;;
568;SDS011;269;48.884;9.192;2023-06-14T05:57:39;8.30;;;4.93;;
568;SDS011;269;48.884;9.192;2023-06-14T06:00:07;5.50;;;5.00;;
568;SDS011;269;48.884;9.192;2023-06-14T06:02:40;6.80;;;5.30;;
568;SDS011;269;48.884;9.192;2023-06-14T06:05:08;5.70;;;5.20;;
568;SDS011;269;48.884;9.192;2023-06-14T06:07:35;6.20;;;5.63;;
568;SDS011;269;48.884;9.192;2023-06-14T06:10:03;5.97;;;5.47;;
568;SDS011;269;48.884;9.192;2023-06-14T06:12:31;6.30;;;5.50;;
568;SDS011;269;48.884;9.192;2023-06-14T06:14:59;5.40;;;4.90;;
568;SDS011;269;48.884;9.192;2023-06-14T06:17:27;5.27;;;4.87;;
568;SDS011;269;48.884;9.192;2023-06-14T06:19:54;5.60;;;5.10;;
568;SDS011;269;48.884;9.192;2023-06-14T06:22:21;5.57;;;5.07;;
568;SDS011;269;48.884;9.192;2023-06-14T06:24:48;5.40;;;4.90;;
568;SDS011;269;48.884;9.192;2023-06-14T06:27:15;5.87;;;5.07;;
568;SDS011;269;48.884;9.192;2023-06-14T06:29:44;5.33;;;4.90;;
568;SDS011;269;48.884;9.192;2023-06-14T06:32:13;6.00;;;4.40;;
568;SDS011;269;48.884;9.192;2023-06-14T06:34:40;5.30;;;4.87;;
568;SDS011;269;48.884;9.192;2023-06-14T06:37:07;5.40;;;5.00;;
568;SDS011;269;48.884;9.192;2023-06-14T06:39:34;6.10;;;5.53;;
568;SDS011;269;48.884;9.192;2023-06-14T06:42:01;5.30;;;4.80;;
568;SDS011;269;48.884;9.192;2023-06-14T06:44:28;6.03;;;5.43;;
568;SDS011;269;48.884;9.192;2023-06-14T06:46:55;5.97;;;5.30;;
568;SDS011;269;48.884;9.192;2023-06-14T06:49:24;5.07;;;4.60;;
568;SDS011;269;48.884;9.192;2023-06-14T06:52:00;6.23;;;5.43;;
568;SDS011;269;48.884;9.192;2023-06-14T06:54:29;5.80;;;5.30;;
568;SDS011;269;48.884;9.192;2023-06-14T06:56:56;7.80;;;5.03;;
568;SDS011;269;48.884;9.192;2023-06-14T06:59:24;6.10;;;5.60;;
568;SDS011;269;48.884;9.192;2023-06-14T07:01:51;5.90;;;5.40;;
568;SDS011;269;48.884;9.192;2023-06-14T07:04:18;9.00;;;5.23;;
568;SDS011;269;48.884;9.192;2023-06-14T07:06:46;7.67;;;5.30;;
568;SDS011;269;48.884;9.192;2023-06-14T07:09:14;7.47;;;5.23;;
568;SDS011;269;48.884;9.192;2023-06-14T07:11:42;6.03;;;5.53;;
568;SDS011;269;48.884;9.192;2023-06-14T07:14:10;5.70;;;5.20;;
568;SDS011;269;48.884;9.192;2023-06-14T07:16:38;7.83;;;6.20;;
568;SDS011;269;48.884;9.192;2023-06-14T07:19:06;7.57;;;6.10;;
568;SDS011;269;48.884;9.192;2023-06-14T07:21:34;7.27;;;4.83;;
568;SDS011;269;48.884;9.192;2023-06-14T07:24:04;6.60;;;5.80;;
568;SDS011;269;48.884;9.192;2023-06-14T07:26:33;10.03;;;6.07;;
568;SDS011;269;48.884;9.192;2023-06-14T07:29:00;5.20;;;4.70;;
568;SDS011;269;48.884;9.192;2023-06-14T07:31:28;6.20;;;5.20;;
568;SDS011;269;48.884;9.192;2023-06-14T07:33:55;5.67;;;5.00;;
568;SDS011;269;48.884;9.192;2023-06-14T07:36:23;6.13;;;5.60;;
568;SDS011;269;48.884;9.192;2023-06-14T07:38:50;7.53;;;5.37;;
568;SDS011;269;48.884;9.192;2023-06-14T07:41:19;5.47;;;4.73;;
568;SDS011;269;48.884;9.192;2023-06-14T07:43:46;6.00;;;5.50;;
568;SDS011;269;48.884;9.192;2023-06-14T07:46:14;5.50;;;5.00;;
568;SDS011;269;48.884;9.192;2023-06-14T07:48:41;6.30;;;5.00;;
568;SDS011;269;48.884;9.192;2023-06-14T07:51:08;5.43;;;5.00;;
568;SDS011;269;48.884;9.192;2023-06-14T07:53:36;5.30;;;4.80;;
568;SDS011;269;48.884;9.192;2023-06-14T07:56:03;6.10;;;5.13;;
568;SDS011;269;48.884;9.192;2023-06-14T07:58:31;4.70;;;4.40;;
568;SDS011;269;48.884;9.192;2023-06-14T08:00:58;5.27;;;4.87;;
568;SDS011;269;48.884;9.192;2023-06-14T08:03:28;4.63;;;4.33;;
568;SDS011;269;48.884;9.192;2023-06-14T08:05:56;5.33;;;4.83;;
568;SDS011;269;48.884;9.192;2023-06-14T08:08:23;5.30;;;4.90;;
568;SDS011;269;48.884;9.192;2023-06-14T08:10:50;5.03;;;4.63;;
568;SDS011;269;48.884;9.192;2023-06-14T08:13:17;5.43;;;5.00;;
568;SDS011;269;48.884;9.192;2023-06-14T08:15:46;5.47;;;5.07;;
568;SDS011;269;48.884;9.192;2023-06-14T08:18:13;5.50;;;5.00;;
568;SDS011;269;48.884;9.192;2023-06-14T08:20:40;5.70;;;5.20;;
568;SDS011;269;48.884;9.192;2023-06-14T08:23:07;6.70;;;6.10;;
568;SDS011;269;48.884;9.192;2023-06-14T08:25:36;6.53;;;5.90;;
568;SDS011;269;48.884;9.192;2023-06-14T08:28:04;5.40;;;5.00;;
568;SDS011;269;48.884;9.192;2023-06-14T08:30:31;5.10;;;4.70;;
568;SDS011;269;48.884;9.192;2023-06-14T08:33:00;5.33;;;4.93;;
568;SDS011;269;48.884;9.192;2023-06-14T08:35:27;5.57;;;5.10;;
568;SDS011;269;48.884;9.192;2023-06-14T08:37:55;5.33;;;4.93;;
568;SDS011;269;48.884;9.192;2023-06-14T08:40:22;5.23;;;4.80;;
568;SDS011;269;48.884;9.192;2023-06-14T08:42:50;6.37;;;5.20;;
568;SDS011;269;48.884;9.192;2023-06-14T08:45:19;5.70;;;5.20;;
568;SDS011;269;48.884;9.192;2023-06-14T08:47:46;5.17;;;4.77;;
568;SDS011;269;48.884;9.192;2023-06-14T08:50:20;6.00;;;5.40;;
568;SDS011;269;48.884;9.192;2023-06-14T08:52:51;4.60;;;4.30;;
568;SDS011;269;48.884;9.192;2023-06-14T08:55:22;5.47;;;4.97;;
568;SDS011;269;48.884;9.192;2023-06-14T08:57:53;5.10;;;4.70;;
568;SDS011;269;48.884;9.192;2023-06-14T09:00:22;6.10;;;5.13;;
568;SDS011;269;48.884;9.192;2023-06-14T09:02:50;5.37;;;4.87;;
568;SDS011;269;48.884;9.192;2023-06-14T09:05:23;5.20;;;4.80;;
568;SDS011;269;48.884;9.192;2023-06-14T09:07:51;6.17;;;4.67;;
568;SDS011;269;48.884;9.192;2023-06-14T09:10:20;5.07;;;4.67;;
568;SDS011;269;48.884;9.192;2023-06-14T09:12:48;5.50;;;5.00;;
568;SDS011;269;48.884;9.192;2023-06-14T09:15:15;4.90;;;4.60;;
568;SDS011;269;48.884;9.192;2023-06-14T09:17:43;5.47;;;5.07;;
568;SDS011;269;48.884;9.192;2023-06-14T09:20:10;4.87;;;4.47;;
568;SDS011;269;48.884;9.192;2023-06-14T09:22:40;5.40;;;5.00;;
568;SDS011;269;48.884;9.192;2023-06-14T09:25:08;5.40;;;5.00;;
568;SDS011;269;48.884;9.192;2023-06-14T09:27:37;5.33;;;5.03;;
568;SDS011;269;48.884;9.192;2023-06-14T09:30:08;5.00;;;4.60;;
568;SDS011;269;48.884;9.192;2023-06-14T09:32:36;5.13;;;4.70;;
568;SDS011;269;48.884;9.192;2023-06-14T09:35:05;5.77;;;5.30;;
568;SDS011;269;48.884;9.192;2023-06-14T09:37:34;5.63;;;5.23;;
568;SDS011;269;48.884;9.192;2023-06-14T09:40:06;5.30;;;4.90;;
568;SDS011;269;48.884;9.192;2023-06-14T11:38:26;4.87;;;4.37;;
568;SDS011;269;48.884;9.192;2023-06-14T11:40:58;7.60;;;3.90;;
568;SDS011;269;48.884;9.192;2023-06-14T11:43:26;4.63;;;4.23;;
568;SDS011;269;48.884;9.192;2023-06-14T11:45:55;4.93;;;4.43;;
568;SDS011;269;48.884;9.192;2023-06-14T11:48:22;4.13;;;3.73;;
568;SDS011;269;48.884;9.192;2023-06-14T11:50:50;7.53;;;4.00;;
568;SDS011;269;48.884;9.192;2023-06-14T11:53:18;4.10;;;3.70;;
568;SDS011;269;48.884;9.192;2023-06-14T11:55:47;4.00;;;3.70;;
568;SDS011;269;48.884;9.192;2023-06-14T11:58:14;4.63;;;3.40;;
568;SDS011;269;48.884;9.192;2023-06-14T12:00:41;3.93;;;3.53;;
568;SDS011;269;48.884;9.192;2023-06-14T12:03:09;4.20;;;3.80;;
568;SDS011;269;48.884;9.192;2023-06-14T12:05:38;4.30;;;3.90;;
568;SDS011;269;48.884;9.192;2023-06-14T12:08:06;4.53;;;4.23;;
568;SDS011;269;48.884;9.192;2023-06-14T12:10:39;4.13;;;3.83;;
568;SDS011;269;48.884;9.192;2023-06-14T12:13:11;3.70;;;3.40;;
568;SDS011;269;48.884;9.192;2023-06-14T12:15:38;5.30;;;4.00;;
568;SDS011;269;48.884;9.192;2023-06-14T12:18:06;5.00;;;3.93;;
568;SDS011;269;48.884;9.192;2023-06-14T12:20:34;4.13;;;3.83;;
568;SDS011;269;48.884;9.192;2023-06-14T12:23:03;4.63;;;4.07;;
568;SDS011;269;48.884;9.192;2023-06-14T12:25:31;4.23;;;3.93;;
568;SDS011;269;48.884;9.192;2023-06-14T12:28:03;6.90;;;3.60;;
568;SDS011;269;48.884;9.192;2023-06-14T12:30:33;6.47;;;4.20;;
568;SDS011;269;48.884;9.192;2023-06-14T12:33:02;4.30;;;3.90;;
568;SDS011;269;48.884;9.192;2023-06-14T12:35:30;4.90;;;4.40;;
568;SDS011;269;48.884;9.192;2023-06-14T12:37:58;4.47;;;4.07;;
568;SDS011;269;48.884;9.192;2023-06-14T12:40:25;4.00;;;3.57;;
568;SDS011;269;48.884;9.192;2023-06-14T12:42:53;4.20;;;3.80;;
568;SDS011;269;48.884;9.192;2023-06-14T12:45:20;4.20;;;3.90;;
568;SDS011;269;48.884;9.192;2023-06-14T12:47:50;4.60;;;4.23;;
568;SDS011;269;48.884;9.192;2023-06-14T12:50:18;4.17;;;3.87;;
568;SDS011;269;48.884;9.192;2023-06-14T12:52:45;4.67;;;4.03;;
568;SDS011;269;48.884;9.192;2023-06-14T12:55:13;5.07;;;4.13;;
568;SDS011;269;48.884;9.192;2023-06-14T12:57:41;4.00;;;3.67;;
568;SDS011;269;48.884;9.192;2023-06-14T13:00:09;4.30;;;3.83;;
568;SDS011;269;48.884;9.192;2023-06-14T13:02:38;3.70;;;3.40;;
568;SDS011;269;48.884;9.192;2023-06-14T13:05:07;3.70;;;3.40;;
568;SDS011;269;48.884;9.192;2023-06-14T13:07:36;4.00;;;3.70;;
568;SDS011;269;48.884;9.192;2023-06-14T13:10:04;5.87;;;3.93;;
568;SDS011;269;48.884;9.192;2023-06-14T13:12:32;3.67;;;3.47;;
568;SDS011;269;48.884;9.192;2023-06-14T13:14:59;4.13;;;3.83;;
568;SDS011;269;48.884;9.192;2023-06-14T13:17:27;4.20;;;3.50;;
568;SDS011;269;48.884;9.192;2023-06-14T13:19:55;4.00;;;3.70;;
568;SDS011;269;48.884;9.192;2023-06-14T13:22:24;4.10;;;3.70;;
568;SDS011;269;48.884;9.192;2023-06-14T13:24:52;4.10;;;3.80;;
568;SDS011;269;48.884;9.192;2023-06-14T13:27:20;3.77;;;3.43;;
568;SDS011;269;48.884;9.192;2023-06-14T13:29:47;4.10;;;3.80;;
568;SDS011;269;48.884;9.192;2023-06-14T13:32:20;3.83;;;3.63;;
568;SDS011;269;48.884;9.192;2023-06-14T13:34:49;4.00;;;3.60;;
568;SDS011;269;48.884;9.192;2023-06-14T13:37:17;4.10;;;3.70;;
568;SDS011;269;48.884;9.192;2023-06-14T13:39:46;4.00;;;3.60;;
568;SDS011;269;48.884;9.192;2023-06-14T13:42:13;4.30;;;3.80;;
568;SDS011;269;48.884;9.192;2023-06-14T13:44:41;4.27;;;4.03;;
568;SDS011;269;48.884;9.192;2023-06-14T13:47:08;3.90;;;3.60;;
568;SDS011;269;48.884;9.192;2023-06-14T13:49:36;4.20;;;3.70;;
568;SDS011;269;48.884;9.192;2023-06-14T13:52:04;4.20;;;3.90;;
568;SDS011;269;48.884;9.192;2023-06-14T13:54:32;4.43;;;3.80;;
568;SDS011;269;48.884;9.192;2023-06-14T13:57:00;3.83;;;3.43;;
568;SDS011;269;48.884;9.192;2023-06-14T13:59:28;4.13;;;3.67;;
568;SDS011;269;48.884;9.192;2023-06-14T14:01:55;3.93;;;3.70;;
568;SDS011;269;48.884;9.192;2023-06-14T14:04:23;5.07;;;3.73;;
568;SDS011;269;48.884;9.192;2023-06-14T14:06:51;3.87;;;3.57;;
568;SDS011;269;48.884;9.192;2023-06-14T14:09:18;3.83;;;3.60;;
568;SDS011;269;48.884;9.192;2023-06-14T14:11:46;4.17;;;3.97;;
568;SDS011;269;48.884;9.192;2023-06-14T14:14:16;4.00;;;3.73;;
568;SDS011;269;48.884;9.192;2023-06-14T14:16:43;3.97;;;3.60;;
568;SDS011;269;48.884;9.192;2023-06-14T14:19:13;3.97;;;3.63;;
568;SDS011;269;48.884;9.192;2023-06-14T14:21:40;3.70;;;3.50;;
568;SDS011;269;48.884;9.192;2023-06-14T14:24:08;3.87;;;3.50;;
568;SDS011;269;48.884;9.192;2023-06-14T14:26:35;3.73;;;3.53;;
568;SDS011;269;48.884;9.192;2023-06-14T14:29:03;3.73;;;3.53;;
568;SDS011;269;48.884;9.192;2023-06-14T14:31:32;4.13;;;3.83;;
568;SDS011;269;48.884;9.192;2023-06-14T14:33:59;3.97;;;3.77;;
568;SDS011;269;48.884;9.192;2023-06-14T14:36:28;3.57;;;3.37;;
568;SDS011;269;48.884;9.192;2023-06-14T14:38:55;4.17;;;3.97;;
568;SDS011;269;48.884;9.192;2023-06-14T14:41:23;3.87;;;3.57;;
568;SDS011;269;48.884;9.192;2023-06-14T14:43:52;4.77;;;4.37;;
568;SDS011;269;48.884;9.192;2023-06-14T14:46:20;4.40;;;4.00;;
568;SDS011;269;48.884;9.192;2023-06-14T14:48:49;3.83;;;3.53;;
568;SDS011;269;48.884;9.192;2023-06-14T14:51:17;4.00;;;3.70;;
568;SDS011;269;48.884;9.192;2023-06-14T14:53:44;3.50;;;3.30;;
568;SDS011;269;48.884;9.192;2023-06-14T14:56:12;3.90;;;3.53;;
568;SDS011;269;48.884;9.192;2023-06-14T14:58:39;4.20;;;3.83;;
568;SDS011;269;48.884;9.192;2023-06-14T15:01:07;3.90;;;3.60;;
568;SDS011;269;48.884;9.192;2023-06-14T15:03:34;3.90;;;3.40;;
568;SDS011;269;48.884;9.192;2023-06-14T15:06:04;4.20;;;3.70;;
568;SDS011;269;48.884;9.192;2023-06-14T15:08:31;3.63;;;3.43;;
568;SDS011;269;48.884;9.192;2023-06-14T15:10:59;3.80;;;3.50;;
568;SDS011;269;48.884;9.192;2023-06-14T15:13:28;3.70;;;3.50;;
568;SDS011;269;48.884;9.192;2023-06-14T15:15:55;4.03;;;3.73;;
568;SDS011;269;48.884;9.192;2023-06-14T15:18:23;3.57;;;3.27;;
568;SDS011;269;48.884;9.192;2023-06-14T15:20:51;4.13;;;3.73;;
568;SDS011;269;48.884;9.192;2023-06-14T15:23:19;4.00;;;3.70;;
568;SDS011;269;48.884;9.192;2023-06-14T15:25:48;3.80;;;3.50;;
568;SDS011;269;48.884;9.192;2023-06-14T15:28:17;3.80;;;3.50;;
568;SDS011;269;48.884;9.192;2023-06-14T15:30:45;3.70;;;3.47;;
568;SDS011;269;48.884;9.192;2023-06-14T15:33:12;3.83;;;3.53;;
568;SDS011;269;48.884;9.192;2023-06-14T15:35:40;3.87;;;3.50;;
568;SDS011;269;48.884;9.192;2023-06-14T15:38:08;4.10;;;3.70;;
568;SDS011;269;48.884;9.192;2023-06-14T15:40:36;4.00;;;3.60;;
568;SDS011;269;48.884;9.192;2023-06-14T15:43:04;4.00;;;3.60;;
568;SDS011;269;48.884;9.192;2023-06-14T15:45:32;3.50;;;3.30;;
568;SDS011;269;48.884;9.192;2023-06-14T15:47:59;4.00;;;3.67;;
568;SDS011;269;48.884;9.192;2023-06-14T15:50:27;4.00;;;3.70;;
568;SDS011;269;48.884;9.192;2023-06-14T15:52:55;3.93;;;3.67;;
568;SDS011;269;48.884;9.192;2023-06-14T15:55:24;3.70;;;3.40;;
568;SDS011;269;48.884;9.192;2023-06-14T15:57:53;5.10;;;3.67;;
568;SDS011;269;48.884;9.192;2023-06-14T16:00:20;4.47;;;4.07;;
568;SDS011;269;48.884;9.192;2023-06-14T16:02:48;4.13;;;3.83;;
568;SDS011;269;48.884;9.192;2023-06-14T16:05:15;4.50;;;4.20;;
568;SDS011;269;48.884;9.192;2023-06-14T16:07:43;4.40;;;4.03;;
568;SDS011;269;48.884;9.192;2023-06-14T16:10:10;3.73;;;3.43;;
568;SDS011;269;48.884;9.192;2023-06-14T16:12:37;4.30;;;4.00;;
568;SDS011;269;48.884;9.192;2023-06-14T16:15:06;3.87;;;3.57;;
568;SDS011;269;48.884;9.192;2023-06-14T16:17:34;4.17;;;3.87;;
568;SDS011;269;48.884;9.192;2023-06-14T16:20:01;3.90;;;3.70;;
568;SDS011;269;48.884;9.192;2023-06-14T16:22:28;4.30;;;4.00;;
568;SDS011;269;48.884;9.192;2023-06-14T16:24:55;4.53;;;4.23;;
568;SDS011;269;48.884;9.192;2023-06-14T16:27:22;5.27;;;3.90;;
568;SDS011;269;48.884;9.192;2023-06-14T16:29:49;4.33;;;3.97;;
568;SDS011;269;48.884;9.192;2023-06-14T16:32:19;4.17;;;3.87;;
568;SDS011;269;48.884;9.192;2023-06-14T16:34:46;8.20;;;5.03;;
568;SDS011;269;48.884;9.192;2023-06-14T16:37:13;4.30;;;4.00;;
568;SDS011;269;48.884;9.192;2023-06-14T16:39:40;5.93;;;4.00;;
568;SDS011;269;48.884;9.192;2023-06-14T16:42:07;4.53;;;4.00;;
568;SDS011;269;48.884;9.192;2023-06-14T16:44:34;4.27;;;3.90;;
568;SDS011;269;48.884;9.192;2023-06-14T16:47:01;4.90;;;4.30;;
568;SDS011;269;48.884;9.192;2023-06-14T16:49:30;4.30;;;4.00;;
568;SDS011;269;48.884;9.192;2023-06-14T16:51:57;4.03;;;3.73;;
568;SDS011;269;48.884;9.192;2023-06-14T16:54:24;4.63;;;4.23;;
568;SDS011;269;48.884;9.192;2023-06-14T16:56:51;4.37;;;3.97;;
568;SDS011;269;48.884;9.192;2023-06-14T16:59:18;4.10;;;3.80;;
568;SDS011;269;48.884;9.192;2023-06-14T17:01:46;4.00;;;3.70;;
568;SDS011;269;48.884;9.192;2023-06-14T17:04:17;4.30;;;3.90;;
568;SDS011;269;48.884;9.192;2023-06-14T17:06:46;4.87;;;4.57;;
568;SDS011;269;48.884;9.192;2023-06-14T17:09:12;4.67;;;4.27;;
568;SDS011;269;48.884;9.192;2023-06-14T17:11:40;4.20;;;3.90;;
568;SDS011;269;48.884;9.192;2023-06-14T17:14:07;4.80;;;4.20;;
568;SDS011;269;48.884;9.192;2023-06-14T17:16:34;4.00;;;3.70;;
568;SDS011;269;48.884;9.192;2023-06-14T17:19:01;4.83;;;4.53;;
568;SDS011;269;48.884;9.192;2023-06-14T17:21:30;4.20;;;3.77;;
568;SDS011;269;48.884;9.192;2023-06-14T17:23:58;5.30;;;3.80;;
568;SDS011;269;48.884;9.192;2023-06-14T17:26:26;4.73;;;4.20;;
568;SDS011;269;48.884;9.192;2023-06-14T17:28:53;4.60;;;4.03;;
568;SDS011;269;48.884;9.192;2023-06-14T17:31:20;4.90;;;4.50;;
568;SDS011;269;48.884;9.192;2023-06-14T17:33:47;4.50;;;4.10;;
568;SDS011;269;48.884;9.192;2023-06-14T17:36:14;4.30;;;4.00;;
568;SDS011;269;48.884;9.192;2023-06-14T17:38:41;4.13;;;3.83;;
568;SDS011;269;48.884;9.192;2023-06-14T17:41:10;4.10;;;3.80;;
568;SDS011;269;48.884;9.192;2023-06-14T17:43:38;4.77;;;3.97;;
568;SDS011;269;48.884;9.192;2023-06-14T17:46:05;4.50;;;4.20;;
568;SDS011;269;48.884;9.192;2023-06-14T17:48:33;4.30;;;4.00;;